createdAt,value
2023-02-23T00:01:57.618Z,9.00
2023-02-23T00:04:25.302Z,9.00
2023-02-23T00:06:53.498Z,9.00
2023-02-23T00:09:28.077Z,9.00
2023-02-23T00:12:01.213Z,9.00
2023-02-23T00:14:31.174Z,9.00
2023-02-23T00:17:01.343Z,9.00
2023-02-23T00:19:28.293Z,9.00
2023-02-23T00:21:58.880Z,9.00
2023-02-23T00:24:27.105Z,9.00
2023-02-23T00:26:57.362Z,9.00
2023-02-23T00:29:25.217Z,8.90
2023-02-23T00:31:56.190Z,8.90
2023-02-23T00:34:24.048Z,8.90
2023-02-23T00:36:56.630Z,8.80
2023-02-23T00:39:29.435Z,8.80
2023-02-23T00:42:02.513Z,8.80
2023-02-23T00:44:29.786Z,8.80
2023-02-23T00:46:56.760Z,8.80
2023-02-23T00:49:23.919Z,8.80
2023-02-23T00:51:52.326Z,8.80
2023-02-23T00:54:21.459Z,8.80
2023-02-23T00:56:49.098Z,8.80
2023-02-23T00:59:19.166Z,8.90
2023-02-23T01:01:46.466Z,8.90
2023-02-23T01:04:14.064Z,8.90
2023-02-23T01:06:42.684Z,8.90
2023-02-23T01:09:13.983Z,8.90
2023-02-23T01:11:41.784Z,8.90
2023-02-23T01:14:10.742Z,9.00
2023-02-23T01:16:40.470Z,9.00
2023-02-23T01:19:08.273Z,9.00
2023-02-23T01:21:38.729Z,9.00
2023-02-23T01:24:08.853Z,9.00
2023-02-23T01:26:38.369Z,9.00
2023-02-23T01:29:08.922Z,9.00
2023-02-23T01:31:38.660Z,9.00
2023-02-23T01:34:06.705Z,9.00
2023-02-23T01:36:36.703Z,9.00
2023-02-23T01:39:06.831Z,9.00
2023-02-23T01:41:36.327Z,9.00
2023-02-23T01:44:06.314Z,9.00
2023-02-23T01:46:37.122Z,9.00
2023-02-23T01:49:06.901Z,9.00
2023-02-23T01:51:44.751Z,8.90
2023-02-23T01:54:17.428Z,8.90
2023-02-23T01:56:49.565Z,8.90
2023-02-23T01:59:17.984Z,8.90
2023-02-23T02:01:45.606Z,8.90
2023-02-23T02:04:16.949Z,8.90
2023-02-23T02:06:47.124Z,8.90
2023-02-23T02:09:17.715Z,8.90
2023-02-23T02:11:49.298Z,8.90
2023-02-23T02:14:21.060Z,8.90
2023-02-23T02:17:10.298Z,8.90
2023-02-23T02:20:06.442Z,8.90
2023-02-23T02:22:48.260Z,9.00
2023-02-23T02:25:36.855Z,9.00
2023-02-23T02:28:36.780Z,9.00
2023-02-23T02:31:30.273Z,9.00
2023-02-23T02:34:18.895Z,8.90
2023-02-23T02:37:11.764Z,8.90
2023-02-23T02:39:47.810Z,8.90
2023-02-23T02:42:40.053Z,8.90
2023-02-23T02:45:28.351Z,8.80
2023-02-23T02:48:05.923Z,8.90
2023-02-23T02:51:05.535Z,8.80
2023-02-23T02:54:07.021Z,8.80
2023-02-23T02:56:40.436Z,8.90
2023-02-23T02:59:37.769Z,8.90
2023-02-23T03:02:25.178Z,8.80
2023-02-23T03:05:11.083Z,8.80
2023-02-23T03:08:02.764Z,8.80
2023-02-23T03:11:16.775Z,8.80
2023-02-23T03:14:33.339Z,8.80
2023-02-23T03:17:41.947Z,8.80
2023-02-23T03:20:45.512Z,8.80
2023-02-23T03:24:04.112Z,8.80
2023-02-23T03:27:11.472Z,8.80
2023-02-23T03:30:01.678Z,8.80
2023-02-23T03:33:03.660Z,8.70
2023-02-23T03:35:57.960Z,8.80
2023-02-23T03:39:06.999Z,8.70
2023-02-23T03:41:55.182Z,8.70
2023-02-23T03:44:47.413Z,8.70
2023-02-23T03:47:37.309Z,8.70
2023-02-23T03:50:28.578Z,8.70
2023-02-23T03:53:18.608Z,8.70
2023-02-23T03:56:10.744Z,8.70
2023-02-23T03:59:00.162Z,8.70
2023-02-23T04:01:47.808Z,8.70
2023-02-23T04:04:34.512Z,8.70
2023-02-23T04:07:21.925Z,8.70
2023-02-23T04:10:08.301Z,8.70
2023-02-23T04:13:06.913Z,8.70
2023-02-23T04:15:40.384Z,8.80
2023-02-23T04:18:15.839Z,8.70
2023-02-23T04:20:43.418Z,8.70
2023-02-23T04:23:10.527Z,8.70
2023-02-23T04:25:37.587Z,8.70
2023-02-23T04:28:04.870Z,8.70
2023-02-23T04:30:32.058Z,8.70
2023-02-23T04:33:02.223Z,8.70
2023-02-23T04:35:31.482Z,8.70
2023-02-23T04:38:01.290Z,8.70
2023-02-23T04:40:29.270Z,8.70
2023-02-23T04:42:57.129Z,8.70
2023-02-23T04:45:30.780Z,8.60
2023-02-23T04:47:57.842Z,8.60
2023-02-23T04:50:24.909Z,8.60
2023-02-23T04:52:53.404Z,8.60
2023-02-23T04:55:23.049Z,8.50
2023-02-23T04:57:50.209Z,8.50
2023-02-23T05:00:18.255Z,8.50
2023-02-23T05:02:46.012Z,8.50
2023-02-23T05:05:13.135Z,8.50
2023-02-23T05:07:40.441Z,8.50
2023-02-23T05:10:08.025Z,8.50
2023-02-23T05:12:35.175Z,8.50
2023-02-23T05:15:02.229Z,8.40
2023-02-23T05:17:32.367Z,8.40
2023-02-23T05:19:59.390Z,8.40
2023-02-23T05:22:26.617Z,8.40
2023-02-23T05:24:55.283Z,8.40
2023-02-23T05:27:23.478Z,8.40
2023-02-23T05:29:50.673Z,8.40
2023-02-23T05:32:18.163Z,8.40
2023-02-23T05:34:45.240Z,8.40
2023-02-23T05:37:12.282Z,8.40
2023-02-23T05:39:39.296Z,8.40
2023-02-23T05:42:06.344Z,8.40
2023-02-23T05:44:33.631Z,8.40
2023-02-23T05:47:01.003Z,8.40
2023-02-23T05:49:28.727Z,8.40
2023-02-23T05:51:55.746Z,8.30
2023-02-23T05:54:22.734Z,8.40
2023-02-23T05:56:50.105Z,8.30
2023-02-23T05:59:17.540Z,8.30
2023-02-23T06:01:44.747Z,8.30
2023-02-23T06:04:11.863Z,8.30
2023-02-23T06:06:38.845Z,8.30
2023-02-23T06:09:05.882Z,8.30
2023-02-23T06:11:32.867Z,8.30
2023-02-23T06:14:00.205Z,8.30
2023-02-23T06:16:28.277Z,8.30
2023-02-23T06:18:55.455Z,8.30
2023-02-23T06:21:23.042Z,8.20
2023-02-23T06:23:53.493Z,8.20
2023-02-23T06:26:20.746Z,8.20
2023-02-23T06:28:47.808Z,8.20
2023-02-23T06:31:14.922Z,8.20
2023-02-23T06:33:41.972Z,8.20
2023-02-23T06:36:10.439Z,8.20
2023-02-23T06:38:38.185Z,8.20
2023-02-23T06:41:09.653Z,8.20
2023-02-23T06:43:36.744Z,8.30
2023-02-23T06:46:04.967Z,8.30
2023-02-23T06:48:34.446Z,8.30
2023-02-23T06:51:01.487Z,8.30
2023-02-23T06:53:31.571Z,8.30
2023-02-23T06:56:00.783Z,8.30
2023-02-23T06:58:29.198Z,8.30
2023-02-23T07:00:56.973Z,8.30
2023-02-23T07:03:26.845Z,8.30
2023-02-23T07:05:54.369Z,8.30
2023-02-23T07:08:21.526Z,8.30
2023-02-23T07:10:48.478Z,8.30
2023-02-23T07:13:16.479Z,8.30
2023-02-23T07:15:43.747Z,8.30
2023-02-23T07:18:10.680Z,8.20
2023-02-23T07:20:38.084Z,8.20
2023-02-23T07:23:05.079Z,8.10
2023-02-23T07:25:32.322Z,8.10
2023-02-23T07:28:02.348Z,8.10
2023-02-23T07:30:29.467Z,8.10
2023-02-23T07:32:56.549Z,8.10
2023-02-23T07:35:23.559Z,8.20
2023-02-23T07:37:50.569Z,8.10
2023-02-23T07:40:19.510Z,8.10
2023-02-23T07:42:46.508Z,8.20
2023-02-23T07:45:14.666Z,8.20
2023-02-23T07:47:41.625Z,8.10
2023-02-23T07:50:10.188Z,8.10
2023-02-23T07:52:38.938Z,8.10
2023-02-23T07:55:08.020Z,8.10
2023-02-23T07:57:35.417Z,8.20
2023-02-23T08:00:02.699Z,8.20
2023-02-23T08:02:39.824Z,8.30
2023-02-23T08:05:07.484Z,8.30
2023-02-23T08:07:34.640Z,8.30
2023-02-23T08:10:01.741Z,8.30
2023-02-23T08:12:33.350Z,8.30
2023-02-23T08:15:00.443Z,8.30
2023-02-23T08:17:29.471Z,8.30
2023-02-23T08:19:56.448Z,8.30
2023-02-23T08:22:23.507Z,8.40
2023-02-23T08:24:50.614Z,8.40
2023-02-23T08:27:17.771Z,8.40
2023-02-23T08:29:44.958Z,8.40
2023-02-23T08:32:12.206Z,8.40
2023-02-23T08:34:45.798Z,8.40
2023-02-23T08:37:12.804Z,8.50
2023-02-23T08:39:39.862Z,8.40
2023-02-23T08:42:06.942Z,8.40
2023-02-23T08:44:34.114Z,8.40
2023-02-23T08:47:04.950Z,8.50
2023-02-23T08:49:33.121Z,8.50
2023-02-23T08:52:00.252Z,8.60
2023-02-23T08:54:27.654Z,8.60
2023-02-23T08:56:58.113Z,8.60
2023-02-23T08:59:25.844Z,8.60
2023-02-23T09:01:52.900Z,8.70
2023-02-23T09:04:19.936Z,8.70
2023-02-23T09:06:50.378Z,8.80
2023-02-23T09:09:17.849Z,8.80
2023-02-23T09:11:47.366Z,8.90
2023-02-23T09:14:14.510Z,8.90
2023-02-23T09:16:41.502Z,8.80
2023-02-23T09:19:08.470Z,8.80
2023-02-23T09:21:35.467Z,8.80
2023-02-23T09:24:02.553Z,8.80
2023-02-23T09:26:29.699Z,8.80
2023-02-23T09:28:59.393Z,8.90
2023-02-23T09:31:26.480Z,8.90
2023-02-23T09:33:56.365Z,8.90
2023-02-23T09:36:25.698Z,9.00
2023-02-23T09:38:57.973Z,9.00
2023-02-23T09:41:37.076Z,9.00
2023-02-23T09:44:29.775Z,8.90
2023-02-23T09:47:02.757Z,9.00
2023-02-23T09:49:35.013Z,8.90
2023-02-23T09:52:04.782Z,8.90
2023-02-23T09:54:36.814Z,8.90
2023-02-23T09:57:11.034Z,8.90
2023-02-23T09:59:39.829Z,8.90
2023-02-23T10:02:48.218Z,8.90
2023-02-23T10:05:16.115Z,9.00
2023-02-23T10:08:09.123Z,9.00
2023-02-23T10:10:58.275Z,9.20
2023-02-23T10:13:34.369Z,9.30
2023-02-23T10:16:15.829Z,9.40
2023-02-23T10:19:08.291Z,9.40
2023-02-23T10:21:44.882Z,9.40
2023-02-23T10:24:14.670Z,9.40
2023-02-23T10:26:53.204Z,9.40
2023-02-23T10:29:26.985Z,9.40
2023-02-23T10:32:28.718Z,9.40
2023-02-23T10:34:56.818Z,9.40
2023-02-23T10:37:25.827Z,9.30
2023-02-23T10:39:53.525Z,9.30
2023-02-23T10:42:34.415Z,9.30
2023-02-23T10:45:01.594Z,9.30
2023-02-23T10:47:34.962Z,9.30
2023-02-23T10:50:03.601Z,9.30
2023-02-23T10:52:41.896Z,9.20
2023-02-23T10:55:32.097Z,9.30
2023-02-23T10:58:08.352Z,9.30
2023-02-23T11:00:40.867Z,9.30
2023-02-23T11:03:27.634Z,9.40
2023-02-23T11:05:54.986Z,9.40
2023-02-23T11:08:22.348Z,9.40
2023-02-23T11:11:04.733Z,9.40
2023-02-23T11:13:46.683Z,9.40
2023-02-23T11:16:44.526Z,9.50
2023-02-23T11:19:24.381Z,9.40
2023-02-23T11:21:52.981Z,9.40
2023-02-23T11:24:27.580Z,9.40
2023-02-23T11:26:59.435Z,9.30
2023-02-23T11:29:44.392Z,9.40
2023-02-23T11:32:14.577Z,9.40
2023-02-23T11:34:43.570Z,9.40
2023-02-23T11:37:14.508Z,9.40
2023-02-23T11:39:54.956Z,9.40
2023-02-23T11:42:35.272Z,9.50
2023-02-23T11:45:33.770Z,9.50
2023-02-23T11:48:02.802Z,9.50
2023-02-23T11:50:35.848Z,9.60
2023-02-23T11:53:13.891Z,9.60
2023-02-23T11:55:48.646Z,9.60
2023-02-23T11:58:30.756Z,9.60
2023-02-23T12:01:00.213Z,9.60
2023-02-23T12:03:29.586Z,9.60
2023-02-23T12:05:59.294Z,9.60
2023-02-23T12:08:40.536Z,9.70
2023-02-23T12:11:16.815Z,9.60
2023-02-23T12:14:23.225Z,9.70
2023-02-23T12:16:57.187Z,9.70
2023-02-23T12:19:27.173Z,9.70
2023-02-23T12:21:59.805Z,9.70
2023-02-23T12:24:34.052Z,9.80
2023-02-23T12:27:23.193Z,9.80
2023-02-23T12:30:16.192Z,9.80
2023-02-23T12:32:58.011Z,9.80
2023-02-23T12:35:43.740Z,9.80
2023-02-23T12:38:30.961Z,9.80
2023-02-23T12:41:18.591Z,9.70
2023-02-23T12:44:15.445Z,9.70
2023-02-23T12:46:49.095Z,9.70
2023-02-23T12:49:48.360Z,9.60
2023-02-23T12:52:31.998Z,9.60
2023-02-23T12:55:01.609Z,9.60
2023-02-23T12:57:45.129Z,9.50
2023-02-23T13:01:00.872Z,9.50
2023-02-23T13:03:54.221Z,9.50
2023-02-23T13:06:24.666Z,9.40
2023-02-23T13:09:42.354Z,9.40
2023-02-23T13:12:23.586Z,9.40
2023-02-23T13:15:24.086Z,9.50
2023-02-23T13:18:11.429Z,9.50
2023-02-23T13:20:54.974Z,9.50
2023-02-23T13:23:54.099Z,9.50
2023-02-23T13:26:43.823Z,9.50
2023-02-23T13:29:36.556Z,9.40
2023-02-23T13:32:05.094Z,9.40
2023-02-23T13:34:36.620Z,9.30
2023-02-23T13:37:07.170Z,9.40
2023-02-23T13:39:47.852Z,9.30
2023-02-23T13:42:21.005Z,9.40
2023-02-23T13:45:09.412Z,9.40
2023-02-23T13:47:50.248Z,9.50
2023-02-23T13:50:54.664Z,9.50
2023-02-23T13:53:41.965Z,9.40
2023-02-23T13:56:22.193Z,9.50
2023-02-23T13:58:53.415Z,9.50
2023-02-23T14:01:28.725Z,9.50
2023-02-23T14:03:59.212Z,9.50
2023-02-23T14:06:29.689Z,9.60
2023-02-23T14:09:21.516Z,9.70
2023-02-23T14:11:54.266Z,9.80
2023-02-23T14:14:30.504Z,9.80
2023-02-23T14:17:35.869Z,9.90
2023-02-23T14:20:17.859Z,9.90
2023-02-23T14:23:18.425Z,9.90
2023-02-23T14:26:08.901Z,9.90
2023-02-23T14:28:39.336Z,9.80
2023-02-23T14:31:12.478Z,9.80
2023-02-23T14:33:42.540Z,9.80
2023-02-23T14:36:21.966Z,9.80
2023-02-23T14:38:51.987Z,9.80
2023-02-23T14:41:23.325Z,9.80
2023-02-23T14:43:55.366Z,9.80
2023-02-23T14:46:25.294Z,9.80
2023-02-23T14:49:20.328Z,9.80
2023-02-23T14:52:00.445Z,9.70
2023-02-23T14:54:27.364Z,9.70
2023-02-23T14:56:59.202Z,9.70
2023-02-23T14:59:38.750Z,9.70
2023-02-23T15:02:27.849Z,9.80
2023-02-23T15:04:55.146Z,9.80
2023-02-23T15:07:32.547Z,9.80
2023-02-23T15:10:01.507Z,9.80
2023-02-23T15:12:38.082Z,9.70
2023-02-23T15:15:13.106Z,9.70
2023-02-23T15:17:44.374Z,9.60
2023-02-23T15:20:17.239Z,9.60
2023-02-23T15:22:51.961Z,9.60
2023-02-23T15:25:24.067Z,9.50
2023-02-23T15:27:52.047Z,9.50
2023-02-23T15:30:35.333Z,9.50
2023-02-23T15:33:06.130Z,9.50
2023-02-23T15:35:45.133Z,9.50
2023-02-23T15:38:41.694Z,9.50
2023-02-23T15:41:15.385Z,9.50
2023-02-23T15:43:43.536Z,9.50
2023-02-23T15:46:24.141Z,9.40
2023-02-23T15:48:54.028Z,9.50
2023-02-23T15:51:39.301Z,9.50
2023-02-23T15:54:28.775Z,9.50
2023-02-23T15:56:58.757Z,9.50
2023-02-23T15:59:35.417Z,9.50
2023-02-23T16:02:04.490Z,9.50
2023-02-23T16:04:42.662Z,9.40
2023-02-23T16:07:23.731Z,9.40
2023-02-23T16:10:06.755Z,9.40
2023-02-23T16:12:40.835Z,9.40
2023-02-23T16:15:29.719Z,9.40
2023-02-23T16:18:01.098Z,9.40
2023-02-23T16:20:41.700Z,9.40
2023-02-23T16:23:28.577Z,9.40
2023-02-23T16:26:12.501Z,9.40
2023-02-23T16:28:45.805Z,9.30
2023-02-23T16:31:23.337Z,9.30
2023-02-23T16:34:03.657Z,9.30
2023-02-23T16:36:38.684Z,9.30
2023-02-23T16:39:12.275Z,9.30
2023-02-23T16:41:39.532Z,9.30
2023-02-23T16:44:07.925Z,9.30
2023-02-23T16:47:02.433Z,9.30
2023-02-23T16:49:35.755Z,9.30
2023-02-23T16:52:25.786Z,9.30
2023-02-23T16:54:55.722Z,9.30
2023-02-23T16:57:30.763Z,9.20
2023-02-23T16:59:58.827Z,9.20
2023-02-23T17:02:26.287Z,9.20
2023-02-23T17:04:58.956Z,9.20
2023-02-23T17:07:29.269Z,9.20
2023-02-23T17:09:56.720Z,9.20
2023-02-23T17:12:24.925Z,9.20
2023-02-23T17:14:54.641Z,9.20
2023-02-23T17:17:26.165Z,9.10
2023-02-23T17:19:53.289Z,9.10
2023-02-23T17:22:20.777Z,9.10
2023-02-23T17:24:48.053Z,9.00
2023-02-23T17:27:15.211Z,8.90
2023-02-23T17:29:42.642Z,8.90
2023-02-23T17:32:09.989Z,8.90
2023-02-23T17:34:40.474Z,8.80
2023-02-23T17:37:08.634Z,8.70
2023-02-23T17:39:41.014Z,8.70
2023-02-23T17:42:10.711Z,8.60
2023-02-23T17:44:37.790Z,8.60
2023-02-23T17:47:07.495Z,8.60
2023-02-23T17:49:34.699Z,8.50
2023-02-23T17:52:05.313Z,8.40
2023-02-23T17:54:32.556Z,8.40
2023-02-23T17:56:59.626Z,8.40
2023-02-23T17:59:26.806Z,8.40
2023-02-23T18:01:54.031Z,8.30
2023-02-23T18:04:21.289Z,8.30
2023-02-23T18:06:51.414Z,8.20
2023-02-23T18:09:21.151Z,8.20
2023-02-23T18:11:48.582Z,8.10
2023-02-23T18:14:16.824Z,8.00
2023-02-23T18:16:43.993Z,8.00
2023-02-23T18:19:11.168Z,8.00
2023-02-23T18:21:42.254Z,8.00
2023-02-23T18:24:11.826Z,7.90
2023-02-23T18:26:40.246Z,7.90
2023-02-23T18:29:07.828Z,7.80
2023-02-23T18:31:35.222Z,7.80
2023-02-23T18:34:02.540Z,7.70
2023-02-23T18:36:31.982Z,7.70
2023-02-23T18:39:00.844Z,7.70
2023-02-23T18:41:31.290Z,7.60
2023-02-23T18:44:04.342Z,7.60
2023-02-23T18:46:42.626Z,7.60
2023-02-23T18:49:16.982Z,7.50
2023-02-23T18:51:44.650Z,7.50
2023-02-23T18:54:17.065Z,7.50
2023-02-23T18:56:47.808Z,7.40
2023-02-23T18:59:16.902Z,7.30
2023-02-23T19:01:46.761Z,7.30
2023-02-23T19:04:14.239Z,7.20
2023-02-23T19:06:43.944Z,7.20
2023-02-23T19:09:14.478Z,7.10
2023-02-23T19:11:43.257Z,7.10
2023-02-23T19:14:16.179Z,7.10
2023-02-23T19:16:45.459Z,7.00
2023-02-23T19:19:13.324Z,6.90
2023-02-23T19:21:41.059Z,6.90
2023-02-23T19:24:08.393Z,6.80
2023-02-23T19:26:37.680Z,6.70
2023-02-23T19:29:05.075Z,6.70
2023-02-23T19:31:32.626Z,6.60
2023-02-23T19:34:05.153Z,6.60
2023-02-23T19:36:33.861Z,6.50
2023-02-23T19:39:10.911Z,6.50
2023-02-23T19:41:39.712Z,6.50
2023-02-23T19:44:07.174Z,6.40
2023-02-23T19:46:35.216Z,6.40
2023-02-23T19:49:02.905Z,6.30
2023-02-23T19:51:30.515Z,6.30
2023-02-23T19:53:58.929Z,6.30
2023-02-23T19:56:30.767Z,6.20
2023-02-23T19:58:59.987Z,6.20
2023-02-23T20:01:30.417Z,6.20
2023-02-23T20:04:02.396Z,6.10
2023-02-23T20:06:34.423Z,6.10
2023-02-23T20:09:05.893Z,6.10
2023-02-23T20:11:52.588Z,6.00
2023-02-23T20:15:56.240Z,6.00
2023-02-23T20:22:57.584Z,5.90
2023-02-23T20:25:35.895Z,5.80
2023-02-23T20:28:34.952Z,5.80
2023-02-23T20:31:11.085Z,5.80
2023-02-23T20:33:38.274Z,5.70
2023-02-23T20:36:15.298Z,5.70
2023-02-23T20:38:50.320Z,5.70
2023-02-23T20:41:17.889Z,5.70
2023-02-23T20:43:49.108Z,5.60
2023-02-23T20:46:40.774Z,5.60
2023-02-23T20:49:19.228Z,5.60
2023-02-23T20:55:32.570Z,5.50
2023-02-23T21:02:58.686Z,5.40
2023-02-23T21:05:28.931Z,5.40
2023-02-23T21:08:01.148Z,5.40
2023-02-23T21:10:51.731Z,5.40
2023-02-23T21:13:21.889Z,5.40
2023-02-23T21:20:20.952Z,5.30
2023-02-23T21:23:42.578Z,5.20
2023-02-23T21:29:33.064Z,5.10
2023-02-23T21:35:23.470Z,5.00
2023-02-23T21:37:51.471Z,4.90
2023-02-23T21:43:46.341Z,4.90
2023-02-23T21:46:17.324Z,4.90
2023-02-23T21:48:44.762Z,4.80
2023-02-23T21:51:18.648Z,4.80
2023-02-23T21:53:49.474Z,4.80
2023-02-23T21:56:24.457Z,4.80
2023-02-23T21:58:53.631Z,4.80
2023-02-23T22:01:29.528Z,4.70
2023-02-23T22:03:57.761Z,4.70
2023-02-23T22:06:31.294Z,4.70
2023-02-23T22:08:59.894Z,4.60
2023-02-23T22:11:31.075Z,4.60
2023-02-23T22:13:59.883Z,4.60
2023-02-23T22:16:33.432Z,4.60
2023-02-23T22:19:06.998Z,4.50
2023-02-23T22:21:40.852Z,4.50
2023-02-23T22:24:09.466Z,4.50
2023-02-23T22:26:42.048Z,4.50
2023-02-23T22:29:10.325Z,4.50
2023-02-23T22:31:38.589Z,4.40
2023-02-23T22:34:07.903Z,4.40
2023-02-23T22:36:35.034Z,4.40
2023-02-23T22:39:06.922Z,4.30
2023-02-23T22:41:42.366Z,4.30
2023-02-23T22:44:12.705Z,4.30
2023-02-23T22:46:41.362Z,4.30
2023-02-23T22:49:15.873Z,4.30
2023-02-23T22:51:43.777Z,4.30
2023-02-23T22:54:11.714Z,4.20
2023-02-23T22:56:39.750Z,4.20
2023-02-23T22:59:08.661Z,4.20
2023-02-23T23:01:38.755Z,4.10
2023-02-23T23:04:10.608Z,4.10
2023-02-23T23:06:40.239Z,4.10
2023-02-23T23:09:08.514Z,4.00
2023-02-23T23:11:41.749Z,4.00
2023-02-23T23:14:10.505Z,3.90
2023-02-23T23:16:48.460Z,3.90
2023-02-23T23:19:24.071Z,3.90
2023-02-23T23:21:55.278Z,3.90
2023-02-23T23:24:24.201Z,3.80
2023-02-23T23:29:46.666Z,3.80
2023-02-23T23:32:20.878Z,3.70
2023-02-23T23:34:49.265Z,3.70
2023-02-23T23:37:21.450Z,3.70
2023-02-23T23:40:00.250Z,3.70
2023-02-23T23:42:27.741Z,3.60
2023-02-23T23:44:57.001Z,3.60
2023-02-23T23:47:28.652Z,3.60
2023-02-23T23:49:56.084Z,3.60
2023-02-23T23:52:25.257Z,3.60
2023-02-23T23:54:54.577Z,3.50
2023-02-23T23:57:21.859Z,3.50
2023-02-23T23:59:49.184Z,3.50
